Terminal Aerodrome Forecast
Issued by NWS Newport/Morehead City, NC

Home | Current Version | Previous Version | Text Only | Print | Product List | Glossary Off
Versions: 1 2 3 4 5 6 7 8 9 10 11 12 13

008
FTUS42 KMHX 061138
TAFEWN
TAF
KEWN 061138Z 0612/0712 02007KT P6SM SCT070 SCT250
     FM062100 03007KT P6SM BKN070
     FM070800 01015G21KT P6SM -RA BKN040=

USA.gov is the U.S. government's official web portal to all federal, state and local government web resources and services.